sensor_id;sensor_type;location;lat;lon;timestamp;P1;durP1;ratioP1;P2;durP2;ratioP2
52898;SDS011;38763;53.096;6.062;2023-06-22T00:02:16;21.42;;;14.93;;
52898;SDS011;38763;53.096;6.062;2023-06-22T00:04:43;26.10;;;16.35;;
52898;SDS011;38763;53.096;6.062;2023-06-22T00:07:08;23.50;;;15.52;;
52898;SDS011;38763;53.096;6.062;2023-06-22T00:09:34;25.70;;;16.73;;
52898;SDS011;38763;53.096;6.062;2023-06-22T00:12:00;25.38;;;17.25;;
52898;SDS011;38763;53.096;6.062;2023-06-22T00:14:26;27.80;;;17.55;;
52898;SDS011;38763;53.096;6.062;2023-06-22T00:16:51;26.55;;;16.95;;
52898;SDS011;38763;53.096;6.062;2023-06-22T00:19:22;25.88;;;17.10;;
52898;SDS011;38763;53.096;6.062;2023-06-22T00:21:48;28.13;;;18.70;;
52898;SDS011;38763;53.096;6.062;2023-06-22T00:24:18;30.38;;;19.83;;
52898;SDS011;38763;53.096;6.062;2023-06-22T00:26:44;29.35;;;20.08;;
52898;SDS011;38763;53.096;6.062;2023-06-22T00:29:10;31.73;;;20.17;;
52898;SDS011;38763;53.096;6.062;2023-06-22T00:31:36;30.83;;;20.98;;
52898;SDS011;38763;53.096;6.062;2023-06-22T00:34:01;32.60;;;22.20;;
52898;SDS011;38763;53.096;6.062;2023-06-22T00:36:27;32.13;;;21.88;;
52898;SDS011;38763;53.096;6.062;2023-06-22T00:38:53;30.48;;;22.15;;
52898;SDS011;38763;53.096;6.062;2023-06-22T00:41:18;34.28;;;22.85;;
52898;SDS011;38763;53.096;6.062;2023-06-22T00:43:44;31.23;;;21.83;;
52898;SDS011;38763;53.096;6.062;2023-06-22T00:46:10;32.65;;;22.15;;
52898;SDS011;38763;53.096;6.062;2023-06-22T00:48:36;34.10;;;22.40;;
52898;SDS011;38763;53.096;6.062;2023-06-22T00:51:03;34.92;;;22.75;;
52898;SDS011;38763;53.096;6.062;2023-06-22T00:53:28;32.88;;;22.02;;
52898;SDS011;38763;53.096;6.062;2023-06-22T00:55:54;30.70;;;21.42;;
52898;SDS011;38763;53.096;6.062;2023-06-22T00:58:21;29.48;;;21.10;;
52898;SDS011;38763;53.096;6.062;2023-06-22T01:00:47;30.77;;;21.38;;
52898;SDS011;38763;53.096;6.062;2023-06-22T01:03:12;33.55;;;22.42;;
52898;SDS011;38763;53.096;6.062;2023-06-22T01:05:38;34.28;;;22.67;;
52898;SDS011;38763;53.096;6.062;2023-06-22T01:10:43;32.30;;;22.15;;
52898;SDS011;38763;53.096;6.062;2023-06-22T01:18:52;32.88;;;23.20;;
52898;SDS011;38763;53.096;6.062;2023-06-22T01:21:21;31.63;;;23.60;;
52898;SDS011;38763;53.096;6.062;2023-06-22T01:23:53;35.17;;;23.45;;
52898;SDS011;38763;53.096;6.062;2023-06-22T01:29:19;35.38;;;24.10;;
52898;SDS011;38763;53.096;6.062;2023-06-22T01:31:46;34.80;;;23.23;;
52898;SDS011;38763;53.096;6.062;2023-06-22T01:34:14;32.28;;;23.45;;
52898;SDS011;38763;53.096;6.062;2023-06-22T01:36:41;31.10;;;22.30;;
52898;SDS011;38763;53.096;6.062;2023-06-22T01:39:07;32.53;;;21.58;;
52898;SDS011;38763;53.096;6.062;2023-06-22T01:41:34;34.35;;;23.27;;
52898;SDS011;38763;53.096;6.062;2023-06-22T01:44:02;32.08;;;22.95;;
52898;SDS011;38763;53.096;6.062;2023-06-22T01:46:31;34.65;;;23.88;;
52898;SDS011;38763;53.096;6.062;2023-06-22T01:48:59;33.03;;;23.33;;
52898;SDS011;38763;53.096;6.062;2023-06-22T01:51:25;30.48;;;21.50;;
52898;SDS011;38763;53.096;6.062;2023-06-22T01:53:50;31.73;;;21.42;;
52898;SDS011;38763;53.096;6.062;2023-06-22T01:56:16;28.27;;;21.73;;
52898;SDS011;38763;53.096;6.062;2023-06-22T01:58:48;30.30;;;21.63;;
52898;SDS011;38763;53.096;6.062;2023-06-22T02:01:19;29.73;;;21.38;;
52898;SDS011;38763;53.096;6.062;2023-06-22T02:06:38;29.10;;;21.25;;
52898;SDS011;38763;53.096;6.062;2023-06-22T02:09:08;31.25;;;21.27;;
52898;SDS011;38763;53.096;6.062;2023-06-22T02:11:37;32.75;;;22.65;;
52898;SDS011;38763;53.096;6.062;2023-06-22T02:14:06;36.25;;;22.83;;
52898;SDS011;38763;53.096;6.062;2023-06-22T02:16:33;34.88;;;23.45;;
52898;SDS011;38763;53.096;6.062;2023-06-22T02:19:00;31.35;;;21.02;;
52898;SDS011;38763;53.096;6.062;2023-06-22T02:21:31;30.90;;;20.65;;
52898;SDS011;38763;53.096;6.062;2023-06-22T02:23:57;30.60;;;21.30;;
52898;SDS011;38763;53.096;6.062;2023-06-22T02:26:24;31.48;;;20.83;;
52898;SDS011;38763;53.096;6.062;2023-06-22T02:28:50;33.13;;;22.80;;
52898;SDS011;38763;53.096;6.062;2023-06-22T02:31:16;37.92;;;23.63;;
52898;SDS011;38763;53.096;6.062;2023-06-22T02:33:42;30.27;;;22.83;;
52898;SDS011;38763;53.096;6.062;2023-06-22T02:36:08;37.05;;;24.83;;
52898;SDS011;38763;53.096;6.062;2023-06-22T02:38:38;34.22;;;24.60;;
52898;SDS011;38763;53.096;6.062;2023-06-22T02:41:10;37.15;;;25.52;;
52898;SDS011;38763;53.096;6.062;2023-06-22T02:43:38;32.78;;;24.70;;
52898;SDS011;38763;53.096;6.062;2023-06-22T02:46:03;32.95;;;22.95;;
52898;SDS011;38763;53.096;6.062;2023-06-22T02:48:29;32.13;;;23.63;;
52898;SDS011;38763;53.096;6.062;2023-06-22T02:50:55;32.08;;;22.52;;
52898;SDS011;38763;53.096;6.062;2023-06-22T02:53:20;30.90;;;21.98;;
52898;SDS011;38763;53.096;6.062;2023-06-22T02:55:46;32.92;;;22.98;;
52898;SDS011;38763;53.096;6.062;2023-06-22T02:58:11;34.72;;;24.52;;
52898;SDS011;38763;53.096;6.062;2023-06-22T03:00:37;35.20;;;24.30;;
52898;SDS011;38763;53.096;6.062;2023-06-22T03:03:04;38.10;;;23.85;;
52898;SDS011;38763;53.096;6.062;2023-06-22T03:05:30;32.92;;;22.95;;
52898;SDS011;38763;53.096;6.062;2023-06-22T03:07:57;34.75;;;22.58;;
52898;SDS011;38763;53.096;6.062;2023-06-22T03:10:23;34.15;;;24.15;;
52898;SDS011;38763;53.096;6.062;2023-06-22T03:12:49;37.95;;;25.75;;
52898;SDS011;38763;53.096;6.062;2023-06-22T03:15:14;35.65;;;24.63;;
52898;SDS011;38763;53.096;6.062;2023-06-22T03:17:42;36.25;;;25.70;;
52898;SDS011;38763;53.096;6.062;2023-06-22T03:20:08;35.30;;;24.25;;
52898;SDS011;38763;53.096;6.062;2023-06-22T03:22:39;36.35;;;26.50;;
52898;SDS011;38763;53.096;6.062;2023-06-22T03:25:06;36.10;;;25.65;;
52898;SDS011;38763;53.096;6.062;2023-06-22T03:27:37;37.55;;;26.60;;
52898;SDS011;38763;53.096;6.062;2023-06-22T03:30:04;34.60;;;25.27;;
52898;SDS011;38763;53.096;6.062;2023-06-22T03:32:30;35.38;;;24.25;;
52898;SDS011;38763;53.096;6.062;2023-06-22T03:34:56;38.17;;;26.60;;
52898;SDS011;38763;53.096;6.062;2023-06-22T03:37:24;38.53;;;26.40;;
52898;SDS011;38763;53.096;6.062;2023-06-22T03:39:51;34.78;;;25.23;;
52898;SDS011;38763;53.096;6.062;2023-06-22T03:42:17;33.35;;;24.35;;
52898;SDS011;38763;53.096;6.062;2023-06-22T03:44:42;37.13;;;25.30;;
52898;SDS011;38763;53.096;6.062;2023-06-22T03:47:08;34.13;;;24.17;;
52898;SDS011;38763;53.096;6.062;2023-06-22T03:49:34;35.83;;;25.05;;
52898;SDS011;38763;53.096;6.062;2023-06-22T03:52:01;34.17;;;24.10;;
52898;SDS011;38763;53.096;6.062;2023-06-22T03:54:28;33.92;;;23.92;;
52898;SDS011;38763;53.096;6.062;2023-06-22T03:56:55;35.33;;;23.98;;
52898;SDS011;38763;53.096;6.062;2023-06-22T03:59:22;33.67;;;23.92;;
52898;SDS011;38763;53.096;6.062;2023-06-22T04:01:47;34.50;;;24.45;;
52898;SDS011;38763;53.096;6.062;2023-06-22T04:04:13;38.70;;;26.65;;
52898;SDS011;38763;53.096;6.062;2023-06-22T04:06:39;35.47;;;26.27;;
52898;SDS011;38763;53.096;6.062;2023-06-22T04:09:07;38.03;;;26.13;;
52898;SDS011;38763;53.096;6.062;2023-06-22T04:11:33;38.63;;;25.90;;
52898;SDS011;38763;53.096;6.062;2023-06-22T04:13:59;38.25;;;25.65;;
52898;SDS011;38763;53.096;6.062;2023-06-22T04:16:24;37.08;;;26.45;;
52898;SDS011;38763;53.096;6.062;2023-06-22T04:18:50;36.22;;;24.05;;
52898;SDS011;38763;53.096;6.062;2023-06-22T04:21:16;36.10;;;24.10;;
52898;SDS011;38763;53.096;6.062;2023-06-22T04:23:41;37.15;;;25.77;;
52898;SDS011;38763;53.096;6.062;2023-06-22T04:26:08;38.85;;;27.30;;
52898;SDS011;38763;53.096;6.062;2023-06-22T04:28:33;42.83;;;27.73;;
52898;SDS011;38763;53.096;6.062;2023-06-22T04:31:02;38.33;;;26.35;;
52898;SDS011;38763;53.096;6.062;2023-06-22T04:33:28;39.55;;;27.27;;
52898;SDS011;38763;53.096;6.062;2023-06-22T04:35:57;38.00;;;26.63;;
52898;SDS011;38763;53.096;6.062;2023-06-22T04:38:26;37.60;;;26.10;;
52898;SDS011;38763;53.096;6.062;2023-06-22T04:40:52;39.28;;;26.27;;
52898;SDS011;38763;53.096;6.062;2023-06-22T04:43:18;35.72;;;25.33;;
52898;SDS011;38763;53.096;6.062;2023-06-22T04:45:44;36.92;;;25.83;;
52898;SDS011;38763;53.096;6.062;2023-06-22T04:48:10;34.63;;;25.13;;
52898;SDS011;38763;53.096;6.062;2023-06-22T04:50:40;35.08;;;24.85;;
52898;SDS011;38763;53.096;6.062;2023-06-22T04:53:06;35.90;;;24.83;;
52898;SDS011;38763;53.096;6.062;2023-06-22T04:55:34;35.38;;;24.42;;
52898;SDS011;38763;53.096;6.062;2023-06-22T04:58:03;36.47;;;23.92;;
52898;SDS011;38763;53.096;6.062;2023-06-22T05:00:30;32.47;;;22.33;;
52898;SDS011;38763;53.096;6.062;2023-06-22T05:02:56;33.65;;;23.13;;
52898;SDS011;38763;53.096;6.062;2023-06-22T05:05:23;35.67;;;24.25;;
52898;SDS011;38763;53.096;6.062;2023-06-22T05:07:49;36.70;;;23.77;;
52898;SDS011;38763;53.096;6.062;2023-06-22T05:10:18;35.05;;;23.90;;
52898;SDS011;38763;53.096;6.062;2023-06-22T05:12:45;34.83;;;23.70;;
52898;SDS011;38763;53.096;6.062;2023-06-22T05:15:11;37.63;;;22.95;;
52898;SDS011;38763;53.096;6.062;2023-06-22T05:17:38;36.15;;;24.05;;
52898;SDS011;38763;53.096;6.062;2023-06-22T05:20:11;38.83;;;24.65;;
52898;SDS011;38763;53.096;6.062;2023-06-22T05:22:37;37.08;;;24.50;;
52898;SDS011;38763;53.096;6.062;2023-06-22T05:25:08;43.28;;;25.08;;
52898;SDS011;38763;53.096;6.062;2023-06-22T05:27:35;37.17;;;25.38;;
52898;SDS011;38763;53.096;6.062;2023-06-22T05:30:07;38.42;;;25.17;;
52898;SDS011;38763;53.096;6.062;2023-06-22T05:32:34;43.42;;;26.25;;
52898;SDS011;38763;53.096;6.062;2023-06-22T05:35:00;42.10;;;26.67;;
52898;SDS011;38763;53.096;6.062;2023-06-22T05:37:25;36.47;;;24.20;;
52898;SDS011;38763;53.096;6.062;2023-06-22T05:39:51;39.22;;;25.33;;
52898;SDS011;38763;53.096;6.062;2023-06-22T05:42:19;35.92;;;24.63;;
52898;SDS011;38763;53.096;6.062;2023-06-22T05:44:44;36.05;;;25.52;;
52898;SDS011;38763;53.096;6.062;2023-06-22T05:47:10;37.97;;;25.67;;
52898;SDS011;38763;53.096;6.062;2023-06-22T05:49:35;40.25;;;25.73;;
52898;SDS011;38763;53.096;6.062;2023-06-22T05:52:01;37.42;;;26.27;;
52898;SDS011;38763;53.096;6.062;2023-06-22T05:54:27;40.28;;;26.20;;
52898;SDS011;38763;53.096;6.062;2023-06-22T05:56:53;35.25;;;24.90;;
52898;SDS011;38763;53.096;6.062;2023-06-22T05:59:19;37.17;;;24.70;;
52898;SDS011;38763;53.096;6.062;2023-06-22T06:01:45;52.83;;;27.30;;
52898;SDS011;38763;53.096;6.062;2023-06-22T06:04:14;46.30;;;26.02;;
52898;SDS011;38763;53.096;6.062;2023-06-22T06:06:43;44.10;;;26.00;;
52898;SDS011;38763;53.096;6.062;2023-06-22T06:09:09;38.40;;;26.08;;
52898;SDS011;38763;53.096;6.062;2023-06-22T06:11:36;36.63;;;26.05;;
52898;SDS011;38763;53.096;6.062;2023-06-22T06:14:02;37.70;;;26.30;;
52898;SDS011;38763;53.096;6.062;2023-06-22T06:16:28;33.85;;;24.17;;
52898;SDS011;38763;53.096;6.062;2023-06-22T06:18:53;34.08;;;23.55;;
52898;SDS011;38763;53.096;6.062;2023-06-22T06:21:20;34.88;;;24.85;;
52898;SDS011;38763;53.096;6.062;2023-06-22T06:23:46;34.08;;;23.67;;
52898;SDS011;38763;53.096;6.062;2023-06-22T06:26:12;31.10;;;22.70;;
52898;SDS011;38763;53.096;6.062;2023-06-22T06:28:40;33.67;;;24.00;;
52898;SDS011;38763;53.096;6.062;2023-06-22T06:31:06;32.25;;;22.90;;
52898;SDS011;38763;53.096;6.062;2023-06-22T06:33:33;36.72;;;21.65;;
52898;SDS011;38763;53.096;6.062;2023-06-22T06:35:59;30.42;;;21.50;;
52898;SDS011;38763;53.096;6.062;2023-06-22T06:38:27;32.58;;;21.23;;
52898;SDS011;38763;53.096;6.062;2023-06-22T06:40:53;26.98;;;20.10;;
52898;SDS011;38763;53.096;6.062;2023-06-22T06:43:18;30.17;;;19.60;;
52898;SDS011;38763;53.096;6.062;2023-06-22T06:45:44;30.35;;;20.52;;
52898;SDS011;38763;53.096;6.062;2023-06-22T06:48:10;27.75;;;20.33;;
52898;SDS011;38763;53.096;6.062;2023-06-22T06:50:36;28.45;;;19.02;;
52898;SDS011;38763;53.096;6.062;2023-06-22T06:53:01;28.75;;;18.80;;
52898;SDS011;38763;53.096;6.062;2023-06-22T06:55:27;26.98;;;18.40;;
52898;SDS011;38763;53.096;6.062;2023-06-22T06:57:53;28.83;;;18.55;;
52898;SDS011;38763;53.096;6.062;2023-06-22T07:00:19;28.35;;;18.08;;
52898;SDS011;38763;53.096;6.062;2023-06-22T07:02:46;26.50;;;18.20;;
52898;SDS011;38763;53.096;6.062;2023-06-22T07:05:13;28.20;;;19.70;;
52898;SDS011;38763;53.096;6.062;2023-06-22T07:07:39;24.38;;;17.85;;
52898;SDS011;38763;53.096;6.062;2023-06-22T07:10:06;25.15;;;17.38;;
52898;SDS011;38763;53.096;6.062;2023-06-22T07:12:32;23.33;;;16.50;;
52898;SDS011;38763;53.096;6.062;2023-06-22T07:15:05;24.77;;;16.20;;
52898;SDS011;38763;53.096;6.062;2023-06-22T07:17:35;23.77;;;16.55;;
52898;SDS011;38763;53.096;6.062;2023-06-22T07:20:01;25.95;;;14.63;;
52898;SDS011;38763;53.096;6.062;2023-06-22T07:22:32;22.70;;;15.20;;
52898;SDS011;38763;53.096;6.062;2023-06-22T07:24:58;21.27;;;15.23;;
52898;SDS011;38763;53.096;6.062;2023-06-22T07:27:24;21.70;;;15.15;;
52898;SDS011;38763;53.096;6.062;2023-06-22T07:29:49;19.98;;;13.65;;
52898;SDS011;38763;53.096;6.062;2023-06-22T07:32:15;20.35;;;14.25;;
52898;SDS011;38763;53.096;6.062;2023-06-22T07:34:41;21.35;;;14.40;;
52898;SDS011;38763;53.096;6.062;2023-06-22T07:37:07;20.98;;;13.27;;
52898;SDS011;38763;53.096;6.062;2023-06-22T07:39:33;18.48;;;13.52;;
52898;SDS011;38763;53.096;6.062;2023-06-22T07:41:59;21.42;;;14.65;;
52898;SDS011;38763;53.096;6.062;2023-06-22T07:44:25;19.48;;;14.27;;
52898;SDS011;38763;53.096;6.062;2023-06-22T07:46:50;16.75;;;12.20;;
52898;SDS011;38763;53.096;6.062;2023-06-22T07:49:16;17.33;;;12.23;;
52898;SDS011;38763;53.096;6.062;2023-06-22T07:51:42;17.48;;;12.90;;
52898;SDS011;38763;53.096;6.062;2023-06-22T07:54:08;16.38;;;12.68;;
52898;SDS011;38763;53.096;6.062;2023-06-22T07:56:35;18.35;;;12.68;;
52898;SDS011;38763;53.096;6.062;2023-06-22T07:59:02;18.23;;;12.93;;
52898;SDS011;38763;53.096;6.062;2023-06-22T08:01:28;14.82;;;11.40;;
52898;SDS011;38763;53.096;6.062;2023-06-22T08:03:54;21.90;;;12.57;;
52898;SDS011;38763;53.096;6.062;2023-06-22T08:06:20;16.35;;;11.18;;
52898;SDS011;38763;53.096;6.062;2023-06-22T08:08:46;14.82;;;10.85;;
52898;SDS011;38763;53.096;6.062;2023-06-22T08:11:13;16.45;;;12.35;;
52898;SDS011;38763;53.096;6.062;2023-06-22T08:13:39;17.30;;;12.02;;
52898;SDS011;38763;53.096;6.062;2023-06-22T08:16:04;16.67;;;11.38;;
52898;SDS011;38763;53.096;6.062;2023-06-22T08:18:30;15.13;;;10.80;;
52898;SDS011;38763;53.096;6.062;2023-06-22T08:20:56;16.75;;;12.20;;
52898;SDS011;38763;53.096;6.062;2023-06-22T08:23:21;15.05;;;11.23;;
52898;SDS011;38763;53.096;6.062;2023-06-22T08:25:47;18.95;;;11.25;;
52898;SDS011;38763;53.096;6.062;2023-06-22T08:28:15;16.83;;;10.95;;
52898;SDS011;38763;53.096;6.062;2023-06-22T08:30:40;17.42;;;11.65;;
52898;SDS011;38763;53.096;6.062;2023-06-22T08:33:06;23.63;;;10.77;;
52898;SDS011;38763;53.096;6.062;2023-06-22T08:35:32;14.80;;;10.88;;
52898;SDS011;38763;53.096;6.062;2023-06-22T08:37:58;17.17;;;11.88;;
52898;SDS011;38763;53.096;6.062;2023-06-22T08:40:25;14.88;;;11.20;;
52898;SDS011;38763;53.096;6.062;2023-06-22T08:42:50;16.05;;;10.75;;
52898;SDS011;38763;53.096;6.062;2023-06-22T08:45:16;16.23;;;10.45;;
52898;SDS011;38763;53.096;6.062;2023-06-22T08:47:42;16.35;;;10.85;;
52898;SDS011;38763;53.096;6.062;2023-06-22T08:50:11;14.88;;;9.00;;
52898;SDS011;38763;53.096;6.062;2023-06-22T08:52:37;12.65;;;7.97;;
52898;SDS011;38763;53.096;6.062;2023-06-22T08:55:06;11.52;;;8.13;;
52898;SDS011;38763;53.096;6.062;2023-06-22T08:57:32;10.65;;;7.78;;
52898;SDS011;38763;53.096;6.062;2023-06-22T08:59:58;11.55;;;7.35;;
52898;SDS011;38763;53.096;6.062;2023-06-22T09:02:27;12.85;;;7.35;;
52898;SDS011;38763;53.096;6.062;2023-06-22T09:04:56;14.70;;;9.25;;
52898;SDS011;38763;53.096;6.062;2023-06-22T09:07:23;14.90;;;8.88;;
52898;SDS011;38763;53.096;6.062;2023-06-22T09:09:49;13.68;;;9.10;;
52898;SDS011;38763;53.096;6.062;2023-06-22T09:12:16;13.13;;;9.30;;
52898;SDS011;38763;53.096;6.062;2023-06-22T09:14:42;13.40;;;7.88;;
52898;SDS011;38763;53.096;6.062;2023-06-22T09:17:08;12.63;;;7.18;;
52898;SDS011;38763;53.096;6.062;2023-06-22T09:19:33;12.65;;;7.55;;
52898;SDS011;38763;53.096;6.062;2023-06-22T09:21:59;11.07;;;7.30;;
52898;SDS011;38763;53.096;6.062;2023-06-22T09:24:25;11.68;;;8.40;;
52898;SDS011;38763;53.096;6.062;2023-06-22T09:26:51;12.85;;;8.05;;
52898;SDS011;38763;53.096;6.062;2023-06-22T09:29:16;13.25;;;8.38;;
52898;SDS011;38763;53.096;6.062;2023-06-22T09:31:42;10.52;;;7.22;;
52898;SDS011;38763;53.096;6.062;2023-06-22T09:34:08;13.50;;;9.32;;
52898;SDS011;38763;53.096;6.062;2023-06-22T09:36:33;13.07;;;8.27;;
52898;SDS011;38763;53.096;6.062;2023-06-22T09:39:00;13.13;;;8.10;;
52898;SDS011;38763;53.096;6.062;2023-06-22T09:41:30;12.13;;;7.45;;
52898;SDS011;38763;53.096;6.062;2023-06-22T09:43:56;11.00;;;7.78;;
52898;SDS011;38763;53.096;6.062;2023-06-22T09:46:22;11.70;;;8.10;;
52898;SDS011;38763;53.096;6.062;2023-06-22T09:48:50;11.30;;;8.23;;
52898;SDS011;38763;53.096;6.062;2023-06-22T09:51:16;13.13;;;7.72;;
52898;SDS011;38763;53.096;6.062;2023-06-22T09:53:41;12.23;;;7.38;;
52898;SDS011;38763;53.096;6.062;2023-06-22T09:56:07;11.25;;;7.05;;
52898;SDS011;38763;53.096;6.062;2023-06-22T09:58:39;11.95;;;8.85;;
52898;SDS011;38763;53.096;6.062;2023-06-22T10:01:06;9.18;;;6.55;;
52898;SDS011;38763;53.096;6.062;2023-06-22T10:03:32;14.30;;;9.05;;
52898;SDS011;38763;53.096;6.062;2023-06-22T10:05:57;10.73;;;8.90;;
52898;SDS011;38763;53.096;6.062;2023-06-22T10:08:23;12.07;;;7.63;;
52898;SDS011;38763;53.096;6.062;2023-06-22T10:10:48;13.80;;;8.32;;
52898;SDS011;38763;53.096;6.062;2023-06-22T10:13:14;11.52;;;7.20;;
52898;SDS011;38763;53.096;6.062;2023-06-22T10:15:40;10.82;;;7.35;;
52898;SDS011;38763;53.096;6.062;2023-06-22T10:18:06;13.50;;;7.00;;
52898;SDS011;38763;53.096;6.062;2023-06-22T10:20:32;7.30;;;5.15;;
52898;SDS011;38763;53.096;6.062;2023-06-22T10:22:58;11.02;;;7.55;;
52898;SDS011;38763;53.096;6.062;2023-06-22T10:25:23;9.40;;;7.00;;
52898;SDS011;38763;53.096;6.062;2023-06-22T10:27:49;8.95;;;5.68;;
52898;SDS011;38763;53.096;6.062;2023-06-22T10:30:15;11.48;;;7.15;;
52898;SDS011;38763;53.096;6.062;2023-06-22T10:32:41;11.48;;;6.22;;
52898;SDS011;38763;53.096;6.062;2023-06-22T10:35:08;8.38;;;6.15;;
52898;SDS011;38763;53.096;6.062;2023-06-22T10:37:38;9.00;;;6.10;;
52898;SDS011;38763;53.096;6.062;2023-06-22T10:40:04;9.45;;;6.18;;
52898;SDS011;38763;53.096;6.062;2023-06-22T10:42:30;9.77;;;6.32;;
52898;SDS011;38763;53.096;6.062;2023-06-22T10:44:56;9.25;;;6.72;;
52898;SDS011;38763;53.096;6.062;2023-06-22T10:47:22;10.60;;;6.97;;
52898;SDS011;38763;53.096;6.062;2023-06-22T10:49:47;10.57;;;5.93;;
52898;SDS011;38763;53.096;6.062;2023-06-22T10:52:13;7.72;;;4.85;;
52898;SDS011;38763;53.096;6.062;2023-06-22T10:54:39;10.75;;;4.80;;
52898;SDS011;38763;53.096;6.062;2023-06-22T10:57:04;9.32;;;4.22;;
52898;SDS011;38763;53.096;6.062;2023-06-22T10:59:30;7.93;;;4.45;;
52898;SDS011;38763;53.096;6.062;2023-06-22T11:01:56;6.88;;;4.18;;
52898;SDS011;38763;53.096;6.062;2023-06-22T11:04:22;7.47;;;4.22;;
52898;SDS011;38763;53.096;6.062;2023-06-22T11:06:48;8.18;;;4.70;;
52898;SDS011;38763;53.096;6.062;2023-06-22T11:09:15;6.07;;;3.80;;
52898;SDS011;38763;53.096;6.062;2023-06-22T11:11:45;6.53;;;3.85;;
52898;SDS011;38763;53.096;6.062;2023-06-22T11:14:11;7.65;;;4.43;;
52898;SDS011;38763;53.096;6.062;2023-06-22T11:16:37;8.20;;;3.70;;
52898;SDS011;38763;53.096;6.062;2023-06-22T11:19:04;6.72;;;3.05;;
52898;SDS011;38763;53.096;6.062;2023-06-22T11:21:30;8.52;;;4.60;;
52898;SDS011;38763;53.096;6.062;2023-06-22T11:23:57;8.65;;;4.40;;
52898;SDS011;38763;53.096;6.062;2023-06-22T11:26:23;7.55;;;3.83;;
52898;SDS011;38763;53.096;6.062;2023-06-22T11:28:50;7.95;;;4.88;;
52898;SDS011;38763;53.096;6.062;2023-06-22T11:31:15;7.38;;;4.15;;
52898;SDS011;38763;53.096;6.062;2023-06-22T11:33:41;7.32;;;4.03;;
52898;SDS011;38763;53.096;6.062;2023-06-22T11:36:07;6.30;;;3.28;;
52898;SDS011;38763;53.096;6.062;2023-06-22T11:38:32;5.40;;;3.22;;
52898;SDS011;38763;53.096;6.062;2023-06-22T11:40:58;7.22;;;4.60;;
52898;SDS011;38763;53.096;6.062;2023-06-22T11:43:25;7.93;;;4.63;;
52898;SDS011;38763;53.096;6.062;2023-06-22T11:45:50;7.03;;;4.35;;
52898;SDS011;38763;53.096;6.062;2023-06-22T11:48:16;10.15;;;4.82;;
52898;SDS011;38763;53.096;6.062;2023-06-22T11:50:42;7.30;;;4.00;;
52898;SDS011;38763;53.096;6.062;2023-06-22T11:53:08;7.60;;;3.97;;
52898;SDS011;38763;53.096;6.062;2023-06-22T11:55:33;8.35;;;4.13;;
52898;SDS011;38763;53.096;6.062;2023-06-22T11:57:59;6.47;;;3.72;;
52898;SDS011;38763;53.096;6.062;2023-06-22T12:00:28;8.60;;;5.53;;
52898;SDS011;38763;53.096;6.062;2023-06-22T12:02:54;6.15;;;3.83;;
52898;SDS011;38763;53.096;6.062;2023-06-22T12:05:21;8.90;;;3.70;;
52898;SDS011;38763;53.096;6.062;2023-06-22T12:07:48;6.85;;;3.42;;
52898;SDS011;38763;53.096;6.062;2023-06-22T12:10:14;6.13;;;3.90;;
52898;SDS011;38763;53.096;6.062;2023-06-22T12:12:40;7.47;;;4.72;;
52898;SDS011;38763;53.096;6.062;2023-06-22T12:15:06;8.57;;;5.07;;
52898;SDS011;38763;53.096;6.062;2023-06-22T12:17:32;8.07;;;4.45;;
52898;SDS011;38763;53.096;6.062;2023-06-22T12:19:59;8.73;;;4.95;;
52898;SDS011;38763;53.096;6.062;2023-06-22T12:22:24;7.30;;;4.70;;
52898;SDS011;38763;53.096;6.062;2023-06-22T12:24:50;7.13;;;4.22;;
52898;SDS011;38763;53.096;6.062;2023-06-22T12:27:16;7.32;;;4.30;;
52898;SDS011;38763;53.096;6.062;2023-06-22T12:29:44;6.75;;;3.90;;
52898;SDS011;38763;53.096;6.062;2023-06-22T12:32:10;9.27;;;5.20;;
52898;SDS011;38763;53.096;6.062;2023-06-22T12:34:38;10.43;;;6.65;;
52898;SDS011;38763;53.096;6.062;2023-06-22T12:37:04;9.55;;;6.53;;
52898;SDS011;38763;53.096;6.062;2023-06-22T12:39:31;10.88;;;6.90;;
52898;SDS011;38763;53.096;6.062;2023-06-22T12:41:56;11.50;;;5.88;;
52898;SDS011;38763;53.096;6.062;2023-06-22T12:44:22;9.82;;;6.50;;
52898;SDS011;38763;53.096;6.062;2023-06-22T12:46:48;8.50;;;6.07;;
52898;SDS011;38763;53.096;6.062;2023-06-22T12:49:13;8.45;;;4.97;;
52898;SDS011;38763;53.096;6.062;2023-06-22T12:51:40;6.97;;;4.75;;
52898;SDS011;38763;53.096;6.062;2023-06-22T12:54:07;9.63;;;5.03;;
52898;SDS011;38763;53.096;6.062;2023-06-22T12:56:33;8.55;;;5.15;;
52898;SDS011;38763;53.096;6.062;2023-06-22T12:58:58;9.18;;;5.80;;
52898;SDS011;38763;53.096;6.062;2023-06-22T13:01:26;8.82;;;5.07;;
52898;SDS011;38763;53.096;6.062;2023-06-22T13:03:52;11.50;;;6.60;;
52898;SDS011;38763;53.096;6.062;2023-06-22T13:06:18;8.38;;;5.03;;
52898;SDS011;38763;53.096;6.062;2023-06-22T13:08:44;9.00;;;5.43;;
52898;SDS011;38763;53.096;6.062;2023-06-22T13:11:10;9.20;;;5.30;;
52898;SDS011;38763;53.096;6.062;2023-06-22T13:13:36;12.02;;;6.10;;
52898;SDS011;38763;53.096;6.062;2023-06-22T13:16:01;9.75;;;5.50;;
52898;SDS011;38763;53.096;6.062;2023-06-22T13:18:27;11.05;;;6.32;;
52898;SDS011;38763;53.096;6.062;2023-06-22T13:20:53;9.10;;;5.80;;
52898;SDS011;38763;53.096;6.062;2023-06-22T13:23:20;10.68;;;6.40;;
52898;SDS011;38763;53.096;6.062;2023-06-22T13:25:46;8.52;;;5.53;;
52898;SDS011;38763;53.096;6.062;2023-06-22T13:28:12;9.98;;;6.10;;
52898;SDS011;38763;53.096;6.062;2023-06-22T13:30:39;9.93;;;5.68;;
52898;SDS011;38763;53.096;6.062;2023-06-22T13:33:05;10.60;;;5.43;;
52898;SDS011;38763;53.096;6.062;2023-06-22T13:35:31;7.72;;;4.65;;
52898;SDS011;38763;53.096;6.062;2023-06-22T13:37:57;8.10;;;4.75;;
52898;SDS011;38763;53.096;6.062;2023-06-22T13:40:22;6.85;;;4.30;;
52898;SDS011;38763;53.096;6.062;2023-06-22T13:42:48;6.15;;;3.67;;
52898;SDS011;38763;53.096;6.062;2023-06-22T13:45:14;7.85;;;3.58;;
52898;SDS011;38763;53.096;6.062;2023-06-22T13:47:42;7.85;;;4.50;;
52898;SDS011;38763;53.096;6.062;2023-06-22T13:50:08;7.32;;;3.33;;
52898;SDS011;38763;53.096;6.062;2023-06-22T13:52:33;5.60;;;3.13;;
52898;SDS011;38763;53.096;6.062;2023-06-22T13:54:59;5.75;;;2.47;;
52898;SDS011;38763;53.096;6.062;2023-06-22T13:57:25;5.63;;;2.95;;
52898;SDS011;38763;53.096;6.062;2023-06-22T13:59:50;9.02;;;3.05;;
52898;SDS011;38763;53.096;6.062;2023-06-22T14:02:18;9.10;;;2.53;;
52898;SDS011;38763;53.096;6.062;2023-06-22T14:04:43;6.28;;;2.60;;
52898;SDS011;38763;53.096;6.062;2023-06-22T14:07:09;4.85;;;2.60;;
52898;SDS011;38763;53.096;6.062;2023-06-22T14:09:35;5.72;;;2.42;;
52898;SDS011;38763;53.096;6.062;2023-06-22T14:12:06;5.32;;;2.40;;
52898;SDS011;38763;53.096;6.062;2023-06-22T14:14:32;5.50;;;2.40;;
52898;SDS011;38763;53.096;6.062;2023-06-22T14:16:58;6.50;;;2.80;;
52898;SDS011;38763;53.096;6.062;2023-06-22T14:19:24;6.43;;;3.00;;
52898;SDS011;38763;53.096;6.062;2023-06-22T14:21:50;7.75;;;2.97;;
52898;SDS011;38763;53.096;6.062;2023-06-22T14:24:15;6.63;;;2.30;;
52898;SDS011;38763;53.096;6.062;2023-06-22T14:26:42;6.25;;;2.58;;
52898;SDS011;38763;53.096;6.062;2023-06-22T14:29:08;5.70;;;2.40;;
52898;SDS011;38763;53.096;6.062;2023-06-22T14:31:33;4.32;;;2.00;;
52898;SDS011;38763;53.096;6.062;2023-06-22T14:33:59;4.68;;;2.10;;
52898;SDS011;38763;53.096;6.062;2023-06-22T14:36:25;4.15;;;2.30;;
52898;SDS011;38763;53.096;6.062;2023-06-22T14:38:51;5.20;;;2.30;;
52898;SDS011;38763;53.096;6.062;2023-06-22T14:41:17;6.13;;;2.20;;